Time;durP1;ratioP1;P1;durP2;ratioP2;P2;SDS_P1;SDS_P2;PMS_P1;PMS_P2;Temp;Humidity;BMP_temperature;BMP_pressure;BME280_temperature;BME280_humidity;BME280_pressure;Samples;Min_cycle;Max_cycle;Signal;HPM_P1;HPM_P2
2021/10/01 00:00:25;;;;;;;28.23;19.63;;;409.70;2355.20;;;;;;5054606;28;20033;-73
2021/10/01 00:02:51;;;;;;;26.85;19.00;;;409.70;2355.20;;;;;;5055799;28;20111;-73
2021/10/01 00:05:19;;;;;;;25.35;19.40;;;409.60;2355.20;;;;;;5053849;28;20033;-73
2021/10/01 00:07:45;;;;;;;28.83;21.67;;;409.60;2355.20;;;;;;5066815;28;20075;-73
2021/10/01 00:10:11;;;;;;;25.02;20.98;;;409.60;2355.20;;;;;;5040410;28;20018;-73
2021/10/01 00:12:37;;;;;;;26.90;18.67;;;409.60;2355.20;;;;;;5055686;28;20013;-73
2021/10/01 00:15:04;;;;;;;23.42;19.15;;;409.70;2355.20;;;;;;5054949;28;20029;-73
2021/10/01 00:17:30;;;;;;;26.15;18.42;;;409.60;2355.20;;;;;;5054819;28;20064;-73
2021/10/01 00:19:56;;;;;;;26.55;18.98;;;409.60;2355.20;;;;;;5055114;28;20048;-73
2021/10/01 00:22:21;;;;;;;25.48;18.42;;;409.60;2355.20;;;;;;5054728;28;20371;-73
2021/10/01 00:24:47;;;;;;;21.75;18.10;;;409.60;2355.20;;;;;;5054566;28;20128;-73
2021/10/01 00:27:14;;;;;;;24.80;17.88;;;409.60;2355.20;;;;;;5054451;28;20033;-73
2021/10/01 00:29:39;;;;;;;27.35;19.05;;;409.60;2355.20;;;;;;5054701;28;20104;-73
2021/10/01 00:32:06;;;;;;;25.27;18.73;;;409.60;2355.20;;;;;;5054474;28;20524;-73
2021/10/01 00:34:32;;;;;;;22.73;17.40;;;409.60;2355.20;;;;;;5054534;28;20017;-73
2021/10/01 00:36:57;;;;;;;22.25;18.92;;;409.60;2355.20;;;;;;5054364;28;20031;-73
2021/10/01 00:39:23;;;;;;;26.63;17.90;;;409.60;2355.20;;;;;;5053317;28;20410;-74
2021/10/01 00:41:49;;;;;;;23.42;18.30;;;409.60;2355.20;;;;;;5069647;28;20037;-73
2021/10/01 00:44:15;;;;;;;24.63;18.17;;;409.60;2355.20;;;;;;5052891;28;20103;-74
2021/10/01 00:46:40;;;;;;;26.92;17.58;;;409.60;2355.20;;;;;;5066579;28;20557;-73
2021/10/01 00:49:06;;;;;;;26.98;18.20;;;409.70;2355.20;;;;;;5054045;28;20427;-73
2021/10/01 00:51:34;;;;;;;22.90;17.85;;;409.70;2355.20;;;;;;5054257;28;20486;-73
2021/10/01 00:54:01;;;;;;;23.27;17.70;;;409.60;2355.20;;;;;;5052705;28;20028;-73
2021/10/01 00:56:27;;;;;;;21.42;17.35;;;409.60;2355.20;;;;;;5055196;28;20432;-74
2021/10/01 00:58:52;;;;;;;23.33;17.58;;;409.60;2355.20;;;;;;5063722;28;20097;-74
2021/10/01 01:01:19;;;;;;;25.70;18.83;;;409.60;2355.20;;;;;;5053171;28;20107;-74
2021/10/01 01:04:04;;;;;;;27.77;17.48;;;409.70;2355.20;;;;;;5054040;28;20057;-73
2021/10/01 01:06:33;;;;;;;23.48;16.63;;;409.60;2355.20;;;;;;5052724;28;20025;-73
2021/10/01 01:09:27;;;;;;;24.75;18.00;;;409.60;2355.20;;;;;;5053982;28;20075;-73
2021/10/01 01:12:28;;;;;;;22.35;16.75;;;409.60;2355.20;;;;;;5066887;28;20021;-74
2021/10/01 01:15:12;;;;;;;23.38;18.00;;;409.70;2355.20;;;;;;5069048;28;20543;-74
2021/10/01 01:17:45;;;;;;;24.55;18.33;;;409.60;2355.20;;;;;;5053695;28;20480;-73
2021/10/01 01:20:31;;;;;;;22.83;16.83;;;409.60;2355.20;;;;;;5053860;28;20752;-74
2021/10/01 01:23:09;;;;;;;22.95;17.33;;;409.60;2355.20;;;;;;5040058;28;20024;-74
2021/10/01 01:25:37;;;;;;;20.48;16.92;;;409.60;2355.20;;;;;;5053628;28;20523;-73
2021/10/01 01:28:19;;;;;;;23.40;17.25;;;409.60;2355.20;;;;;;5068972;28;20107;-73
2021/10/01 01:30:51;;;;;;;23.65;18.27;;;409.70;2355.20;;;;;;5053678;28;20017;-74
2021/10/01 01:33:21;;;;;;;26.15;18.33;;;409.60;2355.20;;;;;;5052165;28;20067;-73
2021/10/01 01:35:52;;;;;;;21.85;17.50;;;409.60;2355.20;;;;;;5053444;28;20021;-73
2021/10/01 01:38:28;;;;;;;21.23;17.13;;;409.60;2355.20;;;;;;5053344;28;20148;-73
2021/10/01 01:40:57;;;;;;;27.65;18.42;;;409.60;2355.20;;;;;;5053320;28;20021;-73
2021/10/01 01:43:25;;;;;;;23.35;17.58;;;409.60;2355.20;;;;;;5068709;28;20033;-74
2021/10/01 01:45:51;;;;;;;25.50;17.58;;;409.60;2355.20;;;;;;5053163;28;20067;-74
2021/10/01 01:48:18;;;;;;;25.10;18.02;;;409.60;2355.20;;;;;;5039447;28;20484;-74
2021/10/01 01:50:44;;;;;;;25.73;16.35;;;409.60;2355.20;;;;;;5051791;28;20464;-73
2021/10/01 01:53:12;;;;;;;21.55;18.08;;;409.60;2355.20;;;;;;5068416;28;20090;-74
2021/10/01 01:55:39;;;;;;;20.90;15.98;;;409.60;2355.20;;;;;;5051399;28;20064;-74
2021/10/01 01:58:06;;;;;;;24.52;17.88;;;409.60;2355.20;;;;;;5051863;28;20029;-73
2021/10/01 02:00:34;;;;;;;22.20;16.15;;;409.60;2355.20;;;;;;5052830;28;20021;-73
2021/10/01 02:03:01;;;;;;;23.08;16.42;;;409.60;2355.20;;;;;;5052722;28;20041;-74
2021/10/01 02:05:28;;;;;;;22.45;16.52;;;409.60;2355.20;;;;;;5053178;28;20017;-74
2021/10/01 02:07:56;;;;;;;25.20;16.10;;;409.60;2355.20;;;;;;5051432;28;20024;-74
2021/10/01 02:10:24;;;;;;;22.67;16.92;;;409.60;2355.20;;;;;;5052727;28;20048;-74
2021/10/01 02:12:54;;;;;;;23.20;16.85;;;409.60;2355.20;;;;;;5052739;28;20045;-73
2021/10/01 02:15:22;;;;;;;21.67;16.20;;;409.70;2355.20;;;;;;5052812;28;20484;-73
2021/10/01 02:17:50;;;;;;;21.58;16.13;;;409.80;2355.20;;;;;;5052702;28;20029;-74
2021/10/01 02:20:17;;;;;;;25.63;17.70;;;409.80;2355.20;;;;;;5052724;28;20024;-73
2021/10/01 02:22:44;;;;;;;21.65;16.13;;;409.80;2355.20;;;;;;5052381;28;20025;-73
2021/10/01 02:27:59;;;;;;;23.73;16.48;;;409.80;2355.20;;;;;;5052450;28;20047;-74
2021/10/01 02:30:25;;;;;;;19.65;15.75;;;409.70;2355.20;;;;;;5050412;28;20040;-73
2021/10/01 02:32:59;;;;;;;22.73;15.48;;;409.70;2355.20;;;;;;5051246;28;20021;-74
2021/10/01 02:35:25;;;;;;;21.02;15.93;;;409.80;2355.20;;;;;;5052551;28;20017;-73
2021/10/01 02:37:52;;;;;;;18.70;14.27;;;409.80;2355.20;;;;;;5067591;28;20097;-73
2021/10/01 02:40:18;;;;;;;18.63;14.00;;;409.80;2355.20;;;;;;5052635;28;20606;-74
2021/10/01 02:42:43;;;;;;;20.52;15.50;;;409.80;2355.20;;;;;;5050911;28;20060;-74
2021/10/01 02:45:11;;;;;;;19.80;15.32;;;409.70;2355.20;;;;;;5051986;28;20067;-73
2021/10/01 02:47:37;;;;;;;19.73;14.60;;;409.80;2355.20;;;;;;5051988;28;20076;-73
2021/10/01 02:50:07;;;;;;;20.63;16.08;;;409.70;2355.20;;;;;;5052379;28;20016;-74
2021/10/01 02:52:54;;;;;;;21.05;15.13;;;409.70;2355.20;;;;;;5050564;28;20025;-74
2021/10/01 02:56:01;;;;;;;20.88;15.57;;;409.80;2355.20;;;;;;5052101;28;20028;-74
2021/10/01 02:58:36;;;;;;;22.63;14.10;;;409.80;2355.20;;;;;;5051950;28;20075;-74
2021/10/01 03:01:05;;;;;;;18.60;14.35;;;409.80;2355.20;;;;;;5050782;28;20029;-74
2021/10/01 03:03:41;;;;;;;17.67;12.93;;;409.80;2355.20;;;;;;5051851;28;20078;-74
2021/10/01 03:06:08;;;;;;;20.75;14.68;;;409.80;2355.20;;;;;;5060575;28;20078;-74
2021/10/01 03:08:34;;;;;;;19.80;15.18;;;409.80;2355.20;;;;;;5059902;28;20059;-74
2021/10/01 03:11:02;;;;;;;20.00;15.23;;;409.70;2355.20;;;;;;5054814;28;20009;-74
2021/10/01 03:13:29;;;;;;;21.77;15.57;;;409.80;2355.20;;;;;;5055228;28;20068;-74
2021/10/01 03:15:59;;;;;;;22.60;15.88;;;409.70;2355.20;;;;;;5054614;28;20056;-74
2021/10/01 03:18:27;;;;;;;17.83;14.98;;;409.60;2355.20;;;;;;5053376;28;20063;-73
2021/10/01 03:20:54;;;;;;;19.85;15.05;;;409.70;2355.20;;;;;;5053354;28;20490;-73
2021/10/01 03:23:22;;;;;;;21.33;15.20;;;409.70;2355.20;;;;;;5054433;28;20029;-74
2021/10/01 03:25:48;;;;;;;18.77;14.70;;;409.70;2355.20;;;;;;5053250;28;20096;-73
2021/10/01 03:28:15;;;;;;;19.20;13.70;;;409.70;2355.20;;;;;;5054139;28;20029;-73
2021/10/01 03:30:41;;;;;;;25.20;15.02;;;409.80;2355.20;;;;;;5054527;28;20119;-73
2021/10/01 03:33:07;;;;;;;18.60;14.00;;;409.80;2355.20;;;;;;5053759;28;20040;-73
2021/10/01 03:35:33;;;;;;;26.13;16.63;;;409.70;2355.20;;;;;;5053983;28;20423;-73
2021/10/01 03:37:59;;;;;;;22.95;16.15;;;409.70;2355.20;;;;;;5053963;28;20542;-73
2021/10/01 03:40:31;;;;;;;20.88;16.35;;;409.70;2355.20;;;;;;5054849;28;20070;-72
2021/10/01 03:42:57;;;;;;;21.08;15.85;;;409.70;2355.20;;;;;;5050388;28;20120;-73
2021/10/01 03:45:22;;;;;;;21.58;17.27;;;409.60;2355.20;;;;;;5054107;28;20176;-73
2021/10/01 03:47:48;;;;;;;20.90;16.27;;;409.60;2355.20;;;;;;5067631;28;20068;-73
2021/10/01 03:50:14;;;;;;;21.13;15.93;;;409.60;2355.20;;;;;;5052909;28;20820;-74
2021/10/01 03:52:40;;;;;;;20.80;15.88;;;409.60;2355.20;;;;;;5052849;28;20033;-73
2021/10/01 03:55:08;;;;;;;24.48;16.45;;;384.90;2329.60;;;;;;5074237;28;20024;-74
2021/10/01 03:57:35;;;;;;;32.40;18.42;;;384.90;2329.60;;;;;;5060560;28;20033;-73
2021/10/01 04:00:06;;;;;;;26.25;16.38;;;384.90;2329.60;;;;;;5053026;28;20021;-73
2021/10/01 04:02:32;;;;;;;21.85;16.20;;;384.90;2329.60;;;;;;5052157;28;20033;-73
2021/10/01 04:04:58;;;;;;;21.45;15.85;;;409.60;2355.20;;;;;;5075750;28;20037;-73
2021/10/01 04:07:24;;;;;;;20.30;16.23;;;409.60;2355.20;;;;;;5060815;28;20082;-73
2021/10/01 04:09:49;;;;;;;24.27;16.27;;;409.60;2355.20;;;;;;5061929;28;20029;-74
2021/10/01 04:12:16;;;;;;;18.70;15.45;;;409.60;2355.20;;;;;;5058611;28;20490;-74
2021/10/01 04:14:42;;;;;;;21.55;15.73;;;409.60;2355.20;;;;;;5053840;28;20376;-73
2021/10/01 04:17:07;;;;;;;21.50;15.68;;;409.60;2355.20;;;;;;5054453;28;20037;-73
2021/10/01 04:19:33;;;;;;;22.05;17.00;;;409.60;2355.20;;;;;;5053214;28;20037;-73
2021/10/01 04:21:59;;;;;;;25.58;16.95;;;409.60;2355.20;;;;;;5053298;28;20052;-73
2021/10/01 04:24:25;;;;;;;22.30;18.27;;;409.60;2355.20;;;;;;5069371;28;20062;-73
2021/10/01 04:26:50;;;;;;;22.13;16.83;;;409.60;2355.20;;;;;;5054405;28;20521;-73
2021/10/01 04:29:16;;;;;;;20.55;15.90;;;409.60;2355.20;;;;;;5053111;28;20033;-73
2021/10/01 04:31:42;;;;;;;18.77;15.82;;;409.60;2355.20;;;;;;5053462;28;20083;-74
2021/10/01 04:34:08;;;;;;;20.80;15.05;;;409.60;2355.20;;;;;;5053329;28;20044;-74
2021/10/01 04:36:35;;;;;;;19.60;15.40;;;409.60;2355.20;;;;;;5052968;28;20029;-74
2021/10/01 04:39:01;;;;;;;25.42;16.48;;;409.60;2355.20;;;;;;5049567;28;20052;-73
2021/10/01 04:41:27;;;;;;;24.23;15.93;;;409.60;2355.20;;;;;;5066886;28;20108;-73
2021/10/01 04:43:55;;;;;;;24.10;18.15;;;409.60;2355.20;;;;;;5053166;28;20017;-73
2021/10/01 04:46:21;;;;;;;25.75;19.42;;;409.60;2355.20;;;;;;5052760;28;20043;-74
2021/10/01 04:48:46;;;;;;;25.80;18.25;;;409.60;2355.20;;;;;;5062627;28;20086;-73
2021/10/01 04:51:12;;;;;;;25.75;19.80;;;409.60;2355.20;;;;;;5058075;28;20033;-73
2021/10/01 04:53:38;;;;;;;26.33;17.98;;;409.70;2355.20;;;;;;5063337;28;20406;-74
2021/10/01 04:56:04;;;;;;;25.00;18.02;;;409.70;2355.20;;;;;;5063916;28;20029;-73
2021/10/01 04:58:30;;;;;;;20.88;15.55;;;409.70;2355.20;;;;;;5081282;28;20044;-74
2021/10/01 05:00:55;;;;;;;21.45;15.20;;;409.80;2355.20;;;;;;5071683;28;20055;-73
2021/10/01 05:03:21;;;;;;;18.67;14.57;;;409.80;2355.20;;;;;;5069733;28;20041;-73
2021/10/01 05:05:47;;;;;;;24.67;16.33;;;409.80;2355.20;;;;;;5053944;28;20021;-73
2021/10/01 05:08:13;;;;;;;20.70;15.07;;;409.70;2355.20;;;;;;5054572;28;20032;-73
2021/10/01 05:10:39;;;;;;;20.15;15.75;;;409.70;2355.20;;;;;;5052974;28;20021;-73
2021/10/01 05:13:04;;;;;;;21.50;15.93;;;409.70;2355.20;;;;;;5054965;28;20029;-74
2021/10/01 05:15:30;;;;;;;20.55;15.93;;;409.80;2355.20;;;;;;5052047;28;20033;-73
2021/10/01 05:17:58;;;;;;;21.77;15.70;;;409.80;2355.20;;;;;;5053307;28;20057;-73
2021/10/01 05:20:24;;;;;;;21.85;16.23;;;409.80;2355.20;;;;;;5053247;28;20028;-73
2021/10/01 05:22:50;;;;;;;22.95;17.85;;;409.90;2355.20;;;;;;5051271;28;20136;-73
2021/10/01 05:25:16;;;;;;;20.27;15.82;;;409.90;2355.20;;;;;;5054619;28;20152;-74
2021/10/01 05:27:42;;;;;;;19.85;15.52;;;409.90;2355.20;;;;;;5053146;28;20106;-74
2021/10/01 05:30:09;;;;;;;20.55;15.43;;;409.90;2355.20;;;;;;5054344;28;20017;-73
2021/10/01 05:32:35;;;;;;;22.58;15.35;;;410.00;2355.20;;;;;;5054350;28;20024;-73
2021/10/01 05:35:01;;;;;;;19.27;15.45;;;410.00;2355.20;;;;;;5053386;28;20391;-73
2021/10/01 05:37:27;;;;;;;22.02;15.88;;;410.00;2355.20;;;;;;5053447;28;20108;-73
2021/10/01 05:39:53;;;;;;;24.13;16.45;;;410.10;2355.20;;;;;;5053358;28;20116;-74
2021/10/01 05:42:18;;;;;;;23.98;15.77;;;410.20;2355.20;;;;;;5054356;28;20111;-73
2021/10/01 05:44:44;;;;;;;17.95;13.30;;;410.20;2355.20;;;;;;5051449;28;20037;-73
2021/10/01 05:47:10;;;;;;;22.88;16.33;;;410.20;2355.20;;;;;;5052398;28;20490;-73
2021/10/01 05:49:40;;;;;;;19.73;15.10;;;410.30;2355.20;;;;;;5052975;28;20025;-73
2021/10/01 05:54:41;;;;;;;19.70;14.75;;;410.40;2355.20;;;;;;5050496;28;20029;-73
2021/10/01 05:57:12;;;;;;;21.48;13.73;;;410.40;2355.20;;;;;;5052445;28;20037;-73
2021/10/01 05:59:39;;;;;;;23.10;14.85;;;410.50;2355.20;;;;;;5052569;28;20052;-73
2021/10/01 06:02:09;;;;;;;20.98;13.95;;;435.20;2355.20;;;;;;5054966;28;20029;-72
2021/10/01 06:04:35;;;;;;;20.00;13.90;;;435.20;2355.20;;;;;;5052286;28;20021;-73
2021/10/01 06:07:00;;;;;;;20.02;14.02;;;435.20;2355.20;;;;;;5052383;28;20033;-73
2021/10/01 06:09:26;;;;;;;20.13;14.68;;;435.30;2355.20;;;;;;5052031;28;20468;-73
2021/10/01 06:11:52;;;;;;;17.85;13.45;;;435.40;2355.20;;;;;;5051736;28;20017;-73
2021/10/01 06:14:22;;;;;;;24.55;13.82;;;435.40;2355.20;;;;;;5054460;28;20104;-73
2021/10/01 06:16:52;;;;;;;19.88;13.38;;;435.50;2355.20;;;;;;5053505;28;20029;-73
2021/10/01 06:19:19;;;;;;;16.77;13.15;;;435.50;2355.20;;;;;;5053473;28;20025;-73
2021/10/01 06:21:45;;;;;;;20.15;13.98;;;435.60;2355.20;;;;;;5056630;28;20046;-73
2021/10/01 06:24:11;;;;;;;15.23;12.60;;;435.60;2355.20;;;;;;5058253;28;20503;-73
2021/10/01 06:26:37;;;;;;;16.38;12.95;;;435.70;2355.20;;;;;;5058710;28;20036;-73
2021/10/01 06:29:03;;;;;;;16.73;12.80;;;435.70;2355.20;;;;;;5055410;28;20021;-73
2021/10/01 06:31:29;;;;;;;18.27;13.15;;;435.80;2355.20;;;;;;5053900;28;20021;-73
2021/10/01 06:33:54;;;;;;;16.75;12.43;;;435.90;2355.20;;;;;;5051797;28;20055;-72
2021/10/01 06:36:22;;;;;;;18.73;12.50;;;436.00;2355.20;;;;;;5050698;28;20032;-73
2021/10/01 06:38:52;;;;;;;31.70;28.13;;;460.80;2380.80;;;;;;5052331;28;20045;-73
2021/10/01 06:41:18;;;;;;;33.80;30.50;;;460.80;2380.80;;;;;;5051001;28;20024;-73
2021/10/01 06:43:45;;;;;;;20.30;16.50;;;460.90;2380.80;;;;;;5051529;28;20021;-73
2021/10/01 06:46:34;;;;;;;43.40;39.60;;;461.00;2380.80;;;;;;5049913;28;20028;-73
2021/10/01 08:21:26;;;;;;;14.75;10.95;;;537.80;2406.40;;;;;;5053221;28;20024;-73
2021/10/01 08:23:58;;;;;;;20.45;9.73;;;537.70;2406.40;;;;;;5053197;28;20049;-73
2021/10/01 08:26:24;;;;;;;17.52;13.43;;;538.00;2406.40;;;;;;5053801;28;21312;-73
2021/10/01 08:28:49;;;;;;;25.58;15.93;;;537.90;2406.40;;;;;;5051915;28;20060;-73
2021/10/01 08:31:16;;;;;;;15.63;11.05;;;538.00;2406.40;;;;;;5054859;28;20439;-73
2021/10/01 08:33:42;;;;;;;21.10;13.25;;;537.90;2406.40;;;;;;5051942;28;20056;-73
2021/10/01 08:36:07;;;;;;;16.58;10.50;;;538.10;2406.40;;;;;;5053555;28;20028;-73
2021/10/01 08:38:33;;;;;;;18.42;11.85;;;538.10;2406.40;;;;;;5053069;28;20052;-73
2021/10/01 08:40:59;;;;;;;21.27;11.80;;;538.20;2406.40;;;;;;5053287;28;20755;-73
2021/10/01 08:43:26;;;;;;;22.58;15.88;;;538.30;2406.40;;;;;;5051253;28;20043;-73
2021/10/01 08:45:52;;;;;;;18.45;11.50;;;563.20;2432.00;;;;;;5053120;28;20024;-73
2021/10/01 08:48:20;;;;;;;20.38;11.38;;;563.30;2432.00;;;;;;5050366;28;20037;-73
2021/10/01 08:50:46;;;;;;;16.88;11.77;;;538.40;2406.40;;;;;;5048878;28;20032;-73
2021/10/01 08:53:12;;;;;;;16.77;10.43;;;563.30;2432.00;;;;;;5051651;28;20021;-73
2021/10/01 08:55:38;;;;;;;22.02;11.18;;;563.30;2432.00;;;;;;5050776;28;20079;-73
2021/10/01 08:58:04;;;;;;;16.45;10.05;;;563.50;2432.00;;;;;;5052536;28;20448;-73
2021/10/01 09:00:31;;;;;;;15.48;10.50;;;563.70;2432.00;;;;;;5052813;28;20037;-73
2021/10/01 09:02:57;;;;;;;21.65;11.30;;;563.70;2432.00;;;;;;5051142;28;20468;-73
2021/10/01 09:05:22;;;;;;;24.27;12.35;;;563.80;2432.00;;;;;;5068366;28;20040;-73
2021/10/01 09:07:48;;;;;;;18.90;11.00;;;563.80;2432.00;;;;;;5052714;28;20085;-72
2021/10/01 09:10:15;;;;;;;18.20;10.30;;;563.70;2432.00;;;;;;5051108;28;20032;-73
2021/10/01 09:13:01;;;;;;;11.85;10.20;;;563.80;2432.00;;;;;;5048398;28;20099;-73
2021/10/01 09:15:41;;;;;;;21.00;12.68;;;564.10;2432.00;;;;;;5052011;28;20029;-74
2021/10/01 09:18:07;;;;;;;20.55;11.95;;;588.90;2432.00;;;;;;5051510;28;20108;-73
2021/10/01 09:20:33;;;;;;;16.55;10.68;;;589.50;2432.00;;;;;;5053052;28;20045;-73
2021/10/01 09:23:17;;;;;;;21.33;12.75;;;614.50;2432.00;;;;;;5052640;28;20029;-73
2021/10/01 09:25:43;;;;;;;19.67;12.88;;;614.60;2432.00;;;;;;5052004;28;20047;-73
2021/10/01 09:28:12;;;;;;;23.25;12.82;;;614.60;2432.00;;;;;;5050886;28;20036;-73
2021/10/01 09:30:46;;;;;;;14.07;9.68;;;614.60;2432.00;;;;;;5051563;28;20041;-74
2021/10/01 09:33:14;;;;;;;17.50;9.30;;;614.60;2432.00;;;;;;5055107;28;20025;-73
2021/10/01 09:35:42;;;;;;;20.42;11.45;;;614.50;2432.00;;;;;;5053848;28;20061;-73
2021/10/01 09:38:16;;;;;;;18.48;9.55;;;614.60;2432.00;;;;;;5051337;28;20388;-73
2021/10/01 09:40:44;;;;;;;19.23;10.25;;;614.50;2432.00;;;;;;5050212;28;20617;-73
2021/10/01 09:43:42;;;;;;;22.77;11.25;;;614.50;2432.00;;;;;;5050911;28;20029;-73
2021/10/01 09:46:12;;;;;;;17.58;12.35;;;614.70;2432.00;;;;;;4995422;28;20060;-73
2021/10/01 09:48:40;;;;;;;20.40;12.77;;;614.90;2432.00;;;;;;5012701;28;20483;-73
2021/10/01 09:51:18;;;;;;;15.82;9.23;;;614.90;2432.00;;;;;;5013200;28;20034;-74
2021/10/01 09:53:49;;;;;;;18.20;10.63;;;614.60;2432.00;;;;;;5007872;28;20030;-73
2021/10/01 09:56:31;;;;;;;14.32;8.82;;;614.90;2432.00;;;;;;5009772;28;20091;-73
2021/10/01 09:59:19;;;;;;;15.10;9.38;;;614.60;2432.00;;;;;;5009584;28;20025;-74
2021/10/01 10:02:08;;;;;;;14.65;9.48;;;614.70;2432.00;;;;;;5011084;28;20644;-74
2021/10/01 10:04:36;;;;;;;18.13;9.27;;;614.70;2432.00;;;;;;5010171;28;20068;-73
2021/10/01 10:07:28;;;;;;;19.80;10.65;;;614.80;2432.00;;;;;;5007270;28;20115;-74
2021/10/01 10:09:55;;;;;;;30.48;15.90;;;614.90;2432.00;;;;;;5009779;28;20037;-73
2021/10/01 10:12:26;;;;;;;24.20;15.20;;;615.00;2432.00;;;;;;5006789;28;20073;-73
2021/10/01 10:14:54;;;;;;;21.83;10.57;;;614.90;2432.00;;;;;;5009917;28;20408;-73
2021/10/01 10:17:24;;;;;;;14.00;8.77;;;614.50;2432.00;;;;;;5008447;28;20029;-73
2021/10/01 10:19:52;;;;;;;25.92;14.30;;;614.80;2432.00;;;;;;5010180;28;20034;-72
2021/10/01 10:22:19;;;;;;;12.68;8.57;;;614.80;2432.00;;;;;;5036275;28;20040;-72
2021/10/01 10:24:45;;;;;;;19.17;9.18;;;614.80;2432.00;;;;;;5050357;28;20052;-73
2021/10/01 10:27:12;;;;;;;14.45;10.15;;;614.70;2432.00;;;;;;5052060;28;20056;-72
2021/10/01 10:29:43;;;;;;;15.32;8.43;;;614.90;2432.00;;;;;;5067354;28;20036;-73
2021/10/01 10:32:11;;;;;;;15.80;9.68;;;614.70;2432.00;;;;;;5050310;28;20366;-73
2021/10/01 10:34:54;;;;;;;14.23;8.95;;;614.70;2432.00;;;;;;5065288;28;20024;-73
2021/10/01 10:37:34;;;;;;;13.90;9.50;;;589.70;2432.00;;;;;;5065940;28;20091;-73
2021/10/01 10:40:32;;;;;;;14.65;9.73;;;614.60;2432.00;;;;;;5048752;28;20025;-73
2021/10/01 10:43:04;;;;;;;12.75;8.50;;;614.60;2432.00;;;;;;4968008;28;20038;-72
2021/10/01 10:45:36;;;;;;;18.42;9.45;;;614.60;2432.00;;;;;;4965414;28;20034;-74
2021/10/01 10:48:08;;;;;;;17.63;9.77;;;614.70;2432.00;;;;;;4952821;28;20462;-73
2021/10/01 10:50:35;;;;;;;11.55;8.23;;;614.70;2406.40;;;;;;4950336;28;20540;-73
2021/10/01 10:55:50;;;;;;;12.07;8.73;;;614.60;2380.80;;;;;;4966104;28;20525;-73
2021/10/01 10:58:27;;;;;;;13.60;7.53;;;614.80;2380.80;;;;;;4964849;28;20121;-73
2021/10/01 11:00:56;;;;;;;15.27;8.52;;;615.00;2329.60;;;;;;4967710;28;20049;-72
2021/10/01 11:03:25;;;;;;;17.95;9.23;;;614.80;2380.80;;;;;;4966876;28;20152;-73
2021/10/01 11:06:08;;;;;;;16.15;9.70;;;615.30;2329.60;;;;;;4968850;28;20041;-73
2021/10/01 11:08:35;;;;;;;14.98;8.75;;;640.30;2278.40;;;;;;4964720;28;20031;-73
2021/10/01 11:11:02;;;;;;;12.00;7.57;;;640.40;2227.20;;;;;;4967425;28;20089;-73
2021/10/01 11:13:33;;;;;;;16.95;9.27;;;640.40;2176.00;;;;;;4967904;28;20030;-73
2021/10/01 11:16:08;;;;;;;12.73;8.65;;;640.60;2150.40;;;;;;4967823;28;20166;-73
2021/10/01 11:18:54;;;;;;;9.98;7.53;;;640.70;2150.40;;;;;;4982094;28;20503;-73
2021/10/01 11:21:29;;;;;;;13.95;8.43;;;640.80;2124.80;;;;;;5042232;28;20041;-73
2021/10/01 11:24:05;;;;;;;15.23;9.03;;;665.60;2150.40;;;;;;5047458;28;20045;-73
2021/10/01 11:26:54;;;;;;;12.30;7.57;;;640.90;2124.80;;;;;;5047909;28;20045;-73
2021/10/01 11:29:22;;;;;;;14.32;7.45;;;640.60;2124.80;;;;;;5053483;28;20021;-73
2021/10/01 11:31:52;;;;;;;12.90;7.45;;;640.20;2124.80;;;;;;5051856;28;20028;-73
2021/10/01 11:34:18;;;;;;;13.15;8.38;;;615.30;2124.80;;;;;;5054257;28;20066;-73
2021/10/01 11:36:43;;;;;;;14.50;9.00;;;640.30;2099.20;;;;;;5052856;28;20072;-72
2021/10/01 11:39:12;;;;;;;13.18;7.63;;;640.60;2073.60;;;;;;5069477;28;20021;-73
2021/10/01 11:41:45;;;;;;;15.57;8.65;;;640.60;2022.40;;;;;;5053404;28;20594;-73
2021/10/01 11:44:13;;;;;;;12.63;8.65;;;640.70;2022.40;;;;;;5053283;28;20033;-73
2021/10/01 11:46:45;;;;;;;15.23;8.38;;;640.80;1971.20;;;;;;5053443;28;20107;-73
2021/10/01 11:49:22;;;;;;;16.40;8.55;;;665.90;1996.80;;;;;;5052687;28;20126;-73
2021/10/01 11:52:17;;;;;;;19.48;7.75;;;666.30;1920.00;;;;;;5054168;28;20029;-73
2021/10/01 11:55:00;;;;;;;12.00;7.65;;;691.40;1894.40;;;;;;5054190;28;20021;-73
2021/10/01 11:57:37;;;;;;;14.68;8.85;;;691.50;1843.20;;;;;;5053484;28;20091;-73
2021/10/01 12:00:07;;;;;;;28.45;11.35;;;666.50;1843.20;;;;;;5054320;28;20121;-74
2021/10/01 12:02:41;;;;;;;12.73;8.50;;;691.40;1843.20;;;;;;5054387;28;20021;-75
2021/10/01 12:05:32;;;;;;;17.25;9.27;;;691.20;1868.80;;;;;;5052762;28;20480;-75
2021/10/01 12:08:06;;;;;;;17.85;8.77;;;666.30;1868.80;;;;;;5050393;28;20032;-75
2021/10/01 12:10:41;;;;;;;13.43;8.80;;;666.30;1843.20;;;;;;5055386;28;20017;-75
2021/10/01 12:13:26;;;;;;;16.27;8.35;;;691.20;1843.20;;;;;;5059032;28;20388;-75
2021/10/01 12:16:01;;;;;;;12.25;8.48;;;691.20;1843.20;;;;;;5071083;28;20083;-74
2021/10/01 12:18:54;;;;;;;13.95;8.75;;;691.70;1817.60;;;;;;5083018;28;20078;-74
2021/10/01 12:21:22;;;;;;;15.18;9.35;;;691.90;1792.00;;;;;;5035266;28;20120;-74
2021/10/01 12:23:50;;;;;;;15.38;8.52;;;691.20;1792.00;;;;;;5049157;28;20056;-75
2021/10/01 12:26:31;;;;;;;18.13;12.05;;;666.20;1817.60;;;;;;5054583;28;20055;-74
2021/10/01 12:29:14;;;;;;;18.27;10.07;;;666.40;1792.00;;;;;;5053997;28;20023;-74
2021/10/01 12:31:44;;;;;;;11.80;7.90;;;666.50;1817.60;;;;;;5069726;28;20040;-74
2021/10/01 12:34:37;;;;;;;12.73;9.63;;;666.50;1792.00;;;;;;5052321;28;20060;-74
2021/10/01 12:37:09;;;;;;;16.75;9.52;;;666.40;1817.60;;;;;;5009415;28;20046;-74
2021/10/01 12:39:38;;;;;;;17.08;8.90;;;666.00;1792.00;;;;;;5007485;28;20100;-74
2021/10/01 12:42:04;;;;;;;15.73;10.77;;;666.30;1792.00;;;;;;5012521;28;20125;-74
2021/10/01 12:44:36;;;;;;;19.42;13.63;;;665.70;1817.60;;;;;;5009343;28;20038;-74
2021/10/01 12:47:20;;;;;;;32.50;18.67;;;665.80;1817.60;;;;;;5005640;28;20061;-74
2021/10/01 12:50:19;;;;;;;28.27;17.75;;;665.70;1817.60;;;;;;4987917;28;20124;-75
2021/10/01 12:52:56;;;;;;;24.27;14.07;;;640.70;1868.80;;;;;;5003810;28;20022;-74
2021/10/01 12:55:22;;;;;;;16.38;9.73;;;665.70;1817.60;;;;;;4982069;28;20038;-74
2021/10/01 12:57:50;;;;;;;11.35;8.50;;;666.30;1792.00;;;;;;5011366;28;20040;-74
2021/10/01 13:00:16;;;;;;;16.50;9.73;;;666.20;1817.60;;;;;;5003925;28;20073;-74
2021/10/01 13:02:57;;;;;;;16.63;8.10;;;665.70;1792.00;;;;;;5007628;28;20048;-75
2021/10/01 13:05:37;;;;;;;22.00;13.40;;;640.60;1817.60;;;;;;5002010;28;20389;-74
2021/10/01 13:08:03;;;;;;;17.00;12.27;;;640.40;1843.20;;;;;;5007644;28;20470;-74
2021/10/01 13:10:48;;;;;;;15.65;9.32;;;640.00;1868.80;;;;;;5006387;28;20029;-74
2021/10/01 13:13:21;;;;;;;16.05;10.77;;;640.00;1868.80;;;;;;5015580;28;20040;-74
2021/10/01 13:15:51;;;;;;;28.95;18.42;;;615.20;1894.40;;;;;;5052932;28;20021;-74
2021/10/01 13:18:20;;;;;;;15.52;10.60;;;615.20;1894.40;;;;;;5049904;28;20731;-74
2021/10/01 13:21:22;;;;;;;19.70;10.02;;;615.10;1920.00;;;;;;5052582;28;20025;-74
2021/10/01 13:23:56;;;;;;;25.20;12.85;;;615.00;1894.40;;;;;;5052798;28;20068;-74
2021/10/01 13:26:26;;;;;;;24.88;14.40;;;615.20;1894.40;;;;;;5052213;28;20120;-74
2021/10/01 13:29:05;;;;;;;24.20;14.25;;;615.00;1920.00;;;;;;5052447;28;20025;-73
2021/10/01 13:31:38;;;;;;;21.58;12.07;;;614.80;1920.00;;;;;;5050635;28;20040;-74
2021/10/01 13:34:04;;;;;;;21.17;13.27;;;614.70;1920.00;;;;;;5052989;28;20110;-74
2021/10/01 13:36:31;;;;;;;15.35;9.25;;;614.60;1945.60;;;;;;5051026;28;20029;-74
2021/10/01 13:38:58;;;;;;;18.25;11.82;;;614.50;1945.60;;;;;;5053808;28;20025;-74
2021/10/01 13:41:24;;;;;;;20.98;12.77;;;614.70;1945.60;;;;;;5053219;28;20024;-74
2021/10/01 13:43:51;;;;;;;19.77;10.30;;;614.90;1945.60;;;;;;5053065;28;20017;-74
2021/10/01 13:46:18;;;;;;;30.45;14.30;;;614.90;1920.00;;;;;;5067232;28;20025;-75
2021/10/01 13:48:45;;;;;;;22.58;15.00;;;615.20;1894.40;;;;;;5051386;28;20041;-74
2021/10/01 13:51:10;;;;;;;27.42;16.58;;;640.10;1868.80;;;;;;5052395;28;20033;-74
2021/10/01 13:53:36;;;;;;;18.52;9.30;;;640.40;1868.80;;;;;;5051637;28;20033;-75
2021/10/01 13:56:03;;;;;;;18.45;13.65;;;640.60;1843.20;;;;;;5052924;28;20476;-74